sensor_id;sensor_type;location;lat;lon;timestamp;pressure;altitude;pressure_sealevel;temperature
66403;BMP180;53212;52.112;5.144;2024-01-15T00:02:09;100288.60;;;1.40
66403;BMP180;53212;52.112;5.144;2024-01-15T00:04:41;100288.00;;;1.40
66403;BMP180;53212;52.112;5.144;2024-01-15T00:07:07;100280.40;;;1.40
66403;BMP180;53212;52.112;5.144;2024-01-15T00:09:33;100270.80;;;1.34
66403;BMP180;53212;52.112;5.144;2024-01-15T00:11:59;100274.40;;;1.30
66403;BMP180;53212;52.112;5.144;2024-01-15T00:14:25;100271.00;;;1.30
66403;BMP180;53212;52.112;5.144;2024-01-15T00:16:51;100265.00;;;1.30
66403;BMP180;53212;52.112;5.144;2024-01-15T00:19:17;100265.80;;;1.30
66403;BMP180;53212;52.112;5.144;2024-01-15T00:21:44;100260.80;;;1.30
66403;BMP180;53212;52.112;5.144;2024-01-15T00:24:10;100255.40;;;1.30
66403;BMP180;53212;52.112;5.144;2024-01-15T00:26:35;100254.60;;;1.30
66403;BMP180;53212;52.112;5.144;2024-01-15T00:29:00;100252.40;;;1.30
66403;BMP180;53212;52.112;5.144;2024-01-15T00:31:26;100248.00;;;1.30
66403;BMP180;53212;52.112;5.144;2024-01-15T00:33:51;100249.80;;;1.30
66403;BMP180;53212;52.112;5.144;2024-01-15T00:36:17;100244.20;;;1.30
66403;BMP180;53212;52.112;5.144;2024-01-15T00:38:44;100242.60;;;1.32
66403;BMP180;53212;52.112;5.144;2024-01-15T00:41:09;100233.60;;;1.30
66403;BMP180;53212;52.112;5.144;2024-01-15T00:43:35;100234.00;;;1.30
66403;BMP180;53212;52.112;5.144;2024-01-15T00:46:05;100230.00;;;1.36
66403;BMP180;53212;52.112;5.144;2024-01-15T00:48:31;100232.40;;;1.40
66403;BMP180;53212;52.112;5.144;2024-01-15T00:50:57;100228.60;;;1.40
66403;BMP180;53212;52.112;5.144;2024-01-15T00:53:22;100227.00;;;1.50
66403;BMP180;53212;52.112;5.144;2024-01-15T00:55:49;100220.60;;;1.50
66403;BMP180;53212;52.112;5.144;2024-01-15T00:58:15;100221.80;;;1.58
66403;BMP180;53212;52.112;5.144;2024-01-15T01:00:41;100219.40;;;1.60
66403;BMP180;53212;52.112;5.144;2024-01-15T01:03:07;100208.40;;;1.70
66403;BMP180;53212;52.112;5.144;2024-01-15T01:05:36;100210.60;;;1.70
66403;BMP180;53212;52.112;5.144;2024-01-15T01:08:01;100209.40;;;1.70
66403;BMP180;53212;52.112;5.144;2024-01-15T01:10:27;100198.40;;;1.80
66403;BMP180;53212;52.112;5.144;2024-01-15T01:12:53;100204.20;;;1.80
66403;BMP180;53212;52.112;5.144;2024-01-15T01:15:18;100202.40;;;1.80
66403;BMP180;53212;52.112;5.144;2024-01-15T01:17:44;100206.60;;;1.88
66403;BMP180;53212;52.112;5.144;2024-01-15T01:20:09;100206.40;;;1.90
66403;BMP180;53212;52.112;5.144;2024-01-15T01:22:36;100202.60;;;1.90
66403;BMP180;53212;52.112;5.144;2024-01-15T01:25:02;100197.00;;;1.90
66403;BMP180;53212;52.112;5.144;2024-01-15T01:27:28;100191.00;;;1.94
66403;BMP180;53212;52.112;5.144;2024-01-15T01:29:53;100198.20;;;2.00
66403;BMP180;53212;52.112;5.144;2024-01-15T01:32:19;100205.40;;;2.00
66403;BMP180;53212;52.112;5.144;2024-01-15T01:34:45;100206.60;;;2.00
66403;BMP180;53212;52.112;5.144;2024-01-15T01:37:11;100200.40;;;2.10
66403;BMP180;53212;52.112;5.144;2024-01-15T01:39:41;100205.00;;;2.10
66403;BMP180;53212;52.112;5.144;2024-01-15T01:42:06;100194.40;;;2.10
66403;BMP180;53212;52.112;5.144;2024-01-15T01:44:32;100192.80;;;2.10
66403;BMP180;53212;52.112;5.144;2024-01-15T01:46:59;100198.00;;;2.00
66403;BMP180;53212;52.112;5.144;2024-01-15T01:49:26;100200.60;;;2.00
66403;BMP180;53212;52.112;5.144;2024-01-15T01:51:52;100204.80;;;1.90
66403;BMP180;53212;52.112;5.144;2024-01-15T01:54:19;100203.80;;;1.90
66403;BMP180;53212;52.112;5.144;2024-01-15T01:56:45;100203.00;;;1.90
66403;BMP180;53212;52.112;5.144;2024-01-15T01:59:12;100194.40;;;1.90
66403;BMP180;53212;52.112;5.144;2024-01-15T02:01:38;100197.20;;;1.86
66403;BMP180;53212;52.112;5.144;2024-01-15T02:04:04;100195.80;;;1.88
66403;BMP180;53212;52.112;5.144;2024-01-15T02:06:29;100198.20;;;1.88
66403;BMP180;53212;52.112;5.144;2024-01-15T02:08:55;100201.80;;;1.86
66403;BMP180;53212;52.112;5.144;2024-01-15T02:11:21;100197.60;;;1.86
66403;BMP180;53212;52.112;5.144;2024-01-15T02:13:47;100212.60;;;1.84
66403;BMP180;53212;52.112;5.144;2024-01-15T02:16:12;100210.60;;;1.90
66403;BMP180;53212;52.112;5.144;2024-01-15T02:18:42;100208.00;;;1.98
66403;BMP180;53212;52.112;5.144;2024-01-15T02:21:09;100204.60;;;2.00
66403;BMP180;53212;52.112;5.144;2024-01-15T02:23:36;100196.60;;;2.00
66403;BMP180;53212;52.112;5.144;2024-01-15T02:26:02;100208.40;;;2.00
66403;BMP180;53212;52.112;5.144;2024-01-15T02:28:28;100205.80;;;2.00
66403;BMP180;53212;52.112;5.144;2024-01-15T02:30:54;100204.40;;;2.00
66403;BMP180;53212;52.112;5.144;2024-01-15T02:33:20;100200.80;;;2.00
66403;BMP180;53212;52.112;5.144;2024-01-15T02:35:45;100202.40;;;2.00
66403;BMP180;53212;52.112;5.144;2024-01-15T02:38:12;100208.80;;;2.00
66403;BMP180;53212;52.112;5.144;2024-01-15T02:40:38;100212.40;;;2.00
66403;BMP180;53212;52.112;5.144;2024-01-15T02:43:04;100219.20;;;2.00
66403;BMP180;53212;52.112;5.144;2024-01-15T02:45:29;100215.20;;;1.92
66403;BMP180;53212;52.112;5.144;2024-01-15T02:47:55;100210.80;;;1.92
66403;BMP180;53212;52.112;5.144;2024-01-15T02:50:21;100206.80;;;1.90
66403;BMP180;53212;52.112;5.144;2024-01-15T02:52:46;100203.80;;;1.78
66403;BMP180;53212;52.112;5.144;2024-01-15T02:55:12;100197.00;;;1.66
66403;BMP180;53212;52.112;5.144;2024-01-15T02:57:37;100202.60;;;1.60
66403;BMP180;53212;52.112;5.144;2024-01-15T03:00:04;100201.60;;;1.50
66403;BMP180;53212;52.112;5.144;2024-01-15T03:02:29;100193.20;;;1.40
66403;BMP180;53212;52.112;5.144;2024-01-15T03:04:57;100187.00;;;1.40
66403;BMP180;53212;52.112;5.144;2024-01-15T03:07:22;100186.00;;;1.40
66403;BMP180;53212;52.112;5.144;2024-01-15T03:09:48;100185.20;;;1.36
66403;BMP180;53212;52.112;5.144;2024-01-15T03:12:13;100185.00;;;1.40
66403;BMP180;53212;52.112;5.144;2024-01-15T03:14:39;100179.60;;;1.34
66403;BMP180;53212;52.112;5.144;2024-01-15T03:17:04;100183.40;;;1.30
66403;BMP180;53212;52.112;5.144;2024-01-15T03:19:30;100185.60;;;1.30
66403;BMP180;53212;52.112;5.144;2024-01-15T03:21:56;100191.00;;;1.30
66403;BMP180;53212;52.112;5.144;2024-01-15T03:24:22;100190.80;;;1.30
66403;BMP180;53212;52.112;5.144;2024-01-15T03:26:47;100188.40;;;1.36
66403;BMP180;53212;52.112;5.144;2024-01-15T03:29:13;100182.40;;;1.40
66403;BMP180;53212;52.112;5.144;2024-01-15T03:31:38;100179.20;;;1.44
66403;BMP180;53212;52.112;5.144;2024-01-15T03:34:03;100175.60;;;1.50
66403;BMP180;53212;52.112;5.144;2024-01-15T03:36:29;100181.60;;;1.60
66403;BMP180;53212;52.112;5.144;2024-01-15T03:38:54;100173.20;;;1.66
66403;BMP180;53212;52.112;5.144;2024-01-15T03:41:20;100178.20;;;1.70
66403;BMP180;53212;52.112;5.144;2024-01-15T03:43:45;100174.00;;;1.72
66403;BMP180;53212;52.112;5.144;2024-01-15T03:46:11;100176.60;;;1.78
66403;BMP180;53212;52.112;5.144;2024-01-15T03:48:36;100171.40;;;1.80
66403;BMP180;53212;52.112;5.144;2024-01-15T03:51:02;100164.20;;;1.80
66403;BMP180;53212;52.112;5.144;2024-01-15T03:53:27;100164.20;;;1.80
66403;BMP180;53212;52.112;5.144;2024-01-15T03:55:53;100174.20;;;1.80
66403;BMP180;53212;52.112;5.144;2024-01-15T03:58:18;100171.20;;;1.80
66403;BMP180;53212;52.112;5.144;2024-01-15T04:00:43;100156.00;;;1.80
66403;BMP180;53212;52.112;5.144;2024-01-15T04:03:09;100154.20;;;1.70
66403;BMP180;53212;52.112;5.144;2024-01-15T04:05:35;100156.60;;;1.70
66403;BMP180;53212;52.112;5.144;2024-01-15T04:08:00;100154.00;;;1.60
66403;BMP180;53212;52.112;5.144;2024-01-15T04:10:26;100149.20;;;1.60
66403;BMP180;53212;52.112;5.144;2024-01-15T04:12:51;100144.80;;;1.50
66403;BMP180;53212;52.112;5.144;2024-01-15T04:15:17;100147.40;;;1.50
66403;BMP180;53212;52.112;5.144;2024-01-15T04:17:42;100144.40;;;1.44
66403;BMP180;53212;52.112;5.144;2024-01-15T04:20:08;100145.00;;;1.40
66403;BMP180;53212;52.112;5.144;2024-01-15T04:22:35;100136.80;;;1.38
66403;BMP180;53212;52.112;5.144;2024-01-15T04:25:01;100136.60;;;1.30
66403;BMP180;53212;52.112;5.144;2024-01-15T04:27:27;100129.40;;;1.30
66403;BMP180;53212;52.112;5.144;2024-01-15T04:29:53;100127.80;;;1.30
66403;BMP180;53212;52.112;5.144;2024-01-15T04:32:19;100133.80;;;1.20
66403;BMP180;53212;52.112;5.144;2024-01-15T04:34:44;100130.00;;;1.20
66403;BMP180;53212;52.112;5.144;2024-01-15T04:37:10;100129.20;;;1.20
66403;BMP180;53212;52.112;5.144;2024-01-15T04:39:35;100123.60;;;1.20
66403;BMP180;53212;52.112;5.144;2024-01-15T04:42:01;100114.00;;;1.20
66403;BMP180;53212;52.112;5.144;2024-01-15T04:44:26;100117.80;;;1.20
66403;BMP180;53212;52.112;5.144;2024-01-15T04:46:52;100114.20;;;1.20
66403;BMP180;53212;52.112;5.144;2024-01-15T04:49:17;100119.40;;;1.30
66403;BMP180;53212;52.112;5.144;2024-01-15T04:51:43;100122.40;;;1.40
66403;BMP180;53212;52.112;5.144;2024-01-15T04:54:08;100122.00;;;1.40
66403;BMP180;53212;52.112;5.144;2024-01-15T04:56:33;100122.80;;;1.50
66403;BMP180;53212;52.112;5.144;2024-01-15T04:58:59;100131.00;;;1.50
66403;BMP180;53212;52.112;5.144;2024-01-15T05:01:24;100121.80;;;1.50
66403;BMP180;53212;52.112;5.144;2024-01-15T05:03:50;100128.00;;;1.50
66403;BMP180;53212;52.112;5.144;2024-01-15T05:06:15;100119.80;;;1.50
66403;BMP180;53212;52.112;5.144;2024-01-15T05:08:41;100112.80;;;1.50
66403;BMP180;53212;52.112;5.144;2024-01-15T05:11:06;100108.80;;;1.40
66403;BMP180;53212;52.112;5.144;2024-01-15T05:13:32;100106.60;;;1.38
66403;BMP180;53212;52.112;5.144;2024-01-15T05:15:57;100106.40;;;1.30
66403;BMP180;53212;52.112;5.144;2024-01-15T05:18:23;100104.80;;;1.30
66403;BMP180;53212;52.112;5.144;2024-01-15T05:20:48;100107.20;;;1.20
66403;BMP180;53212;52.112;5.144;2024-01-15T05:23:14;100099.20;;;1.20
66403;BMP180;53212;52.112;5.144;2024-01-15T05:25:39;100101.00;;;1.10
66403;BMP180;53212;52.112;5.144;2024-01-15T05:28:05;100100.80;;;1.10
66403;BMP180;53212;52.112;5.144;2024-01-15T05:30:31;100100.80;;;1.04
66403;BMP180;53212;52.112;5.144;2024-01-15T05:32:56;100096.20;;;1.00
66403;BMP180;53212;52.112;5.144;2024-01-15T05:35:23;100095.00;;;1.00
66403;BMP180;53212;52.112;5.144;2024-01-15T05:37:48;100097.60;;;1.00
66403;BMP180;53212;52.112;5.144;2024-01-15T05:40:14;100107.40;;;1.00
66403;BMP180;53212;52.112;5.144;2024-01-15T05:42:40;100106.40;;;1.00
66403;BMP180;53212;52.112;5.144;2024-01-15T05:45:07;100100.60;;;1.00
66403;BMP180;53212;52.112;5.144;2024-01-15T05:47:33;100100.60;;;1.10
66403;BMP180;53212;52.112;5.144;2024-01-15T05:50:00;100093.80;;;1.10
66403;BMP180;53212;52.112;5.144;2024-01-15T05:52:26;100092.80;;;1.14
66403;BMP180;53212;52.112;5.144;2024-01-15T05:54:51;100093.40;;;1.20
66403;BMP180;53212;52.112;5.144;2024-01-15T05:57:17;100095.60;;;1.20
66403;BMP180;53212;52.112;5.144;2024-01-15T05:59:44;100101.40;;;1.20
66403;BMP180;53212;52.112;5.144;2024-01-15T06:02:10;100093.40;;;1.30
66403;BMP180;53212;52.112;5.144;2024-01-15T06:04:36;100087.40;;;1.30
66403;BMP180;53212;52.112;5.144;2024-01-15T06:07:02;100077.20;;;1.30
66403;BMP180;53212;52.112;5.144;2024-01-15T06:09:27;100078.20;;;1.30
66403;BMP180;53212;52.112;5.144;2024-01-15T06:11:53;100087.00;;;1.32
66403;BMP180;53212;52.112;5.144;2024-01-15T06:14:19;100097.80;;;1.40
66403;BMP180;53212;52.112;5.144;2024-01-15T06:16:44;100095.00;;;1.44
66403;BMP180;53212;52.112;5.144;2024-01-15T06:19:10;100100.60;;;1.50
66403;BMP180;53212;52.112;5.144;2024-01-15T06:21:35;100094.60;;;1.60
66403;BMP180;53212;52.112;5.144;2024-01-15T06:24:01;100091.00;;;1.56
66403;BMP180;53212;52.112;5.144;2024-01-15T06:26:26;100095.00;;;1.40
66403;BMP180;53212;52.112;5.144;2024-01-15T06:28:52;100096.40;;;1.30
66403;BMP180;53212;52.112;5.144;2024-01-15T06:31:17;100083.20;;;1.22
66403;BMP180;53212;52.112;5.144;2024-01-15T06:33:42;100088.60;;;1.20
66403;BMP180;53212;52.112;5.144;2024-01-15T06:36:08;100103.80;;;1.20
66403;BMP180;53212;52.112;5.144;2024-01-15T06:38:34;100112.40;;;1.30
66403;BMP180;53212;52.112;5.144;2024-01-15T06:41:00;100103.80;;;1.30
66403;BMP180;53212;52.112;5.144;2024-01-15T06:43:25;100098.80;;;1.20
66403;BMP180;53212;52.112;5.144;2024-01-15T06:45:51;100082.40;;;1.20
66403;BMP180;53212;52.112;5.144;2024-01-15T06:48:16;100076.20;;;1.10
66403;BMP180;53212;52.112;5.144;2024-01-15T06:50:45;100075.40;;;1.10
66403;BMP180;53212;52.112;5.144;2024-01-15T06:53:11;100071.20;;;1.10
66403;BMP180;53212;52.112;5.144;2024-01-15T06:55:37;100064.60;;;1.04
66403;BMP180;53212;52.112;5.144;2024-01-15T06:58:02;100063.00;;;1.10
66403;BMP180;53212;52.112;5.144;2024-01-15T07:00:28;100062.20;;;1.10
66403;BMP180;53212;52.112;5.144;2024-01-15T07:02:54;100070.00;;;1.10
66403;BMP180;53212;52.112;5.144;2024-01-15T07:05:21;100085.40;;;1.10
66403;BMP180;53212;52.112;5.144;2024-01-15T07:07:46;100095.60;;;1.10
66403;BMP180;53212;52.112;5.144;2024-01-15T07:10:13;100109.00;;;1.12
66403;BMP180;53212;52.112;5.144;2024-01-15T07:12:39;100114.00;;;1.14
66403;BMP180;53212;52.112;5.144;2024-01-15T07:15:06;100105.40;;;1.14
66403;BMP180;53212;52.112;5.144;2024-01-15T07:17:33;100125.00;;;1.10
66403;BMP180;53212;52.112;5.144;2024-01-15T07:19:59;100115.60;;;1.10
66403;BMP180;53212;52.112;5.144;2024-01-15T07:22:24;100111.80;;;1.02
66403;BMP180;53212;52.112;5.144;2024-01-15T07:24:50;100100.60;;;1.00
66403;BMP180;53212;52.112;5.144;2024-01-15T07:27:15;100102.20;;;1.00
66403;BMP180;53212;52.112;5.144;2024-01-15T07:29:41;100112.20;;;1.00
66403;BMP180;53212;52.112;5.144;2024-01-15T07:32:08;100112.60;;;1.00
66403;BMP180;53212;52.112;5.144;2024-01-15T07:34:34;100108.80;;;1.00
66403;BMP180;53212;52.112;5.144;2024-01-15T07:36:59;100108.00;;;1.00
66403;BMP180;53212;52.112;5.144;2024-01-15T07:39:25;100099.40;;;1.00
66403;BMP180;53212;52.112;5.144;2024-01-15T07:41:54;100094.20;;;1.00
66403;BMP180;53212;52.112;5.144;2024-01-15T07:44:20;100100.40;;;1.00
66403;BMP180;53212;52.112;5.144;2024-01-15T07:46:46;100097.40;;;1.00
66403;BMP180;53212;52.112;5.144;2024-01-15T07:49:13;100107.60;;;1.00
66403;BMP180;53212;52.112;5.144;2024-01-15T07:51:38;100115.60;;;1.00
66403;BMP180;53212;52.112;5.144;2024-01-15T07:54:06;100113.40;;;1.00
66403;BMP180;53212;52.112;5.144;2024-01-15T07:56:33;100110.20;;;1.00
66403;BMP180;53212;52.112;5.144;2024-01-15T07:58:58;100107.80;;;1.00
66403;BMP180;53212;52.112;5.144;2024-01-15T08:01:24;100096.20;;;1.00
66403;BMP180;53212;52.112;5.144;2024-01-15T08:03:49;100093.80;;;1.00
66403;BMP180;53212;52.112;5.144;2024-01-15T08:06:15;100090.80;;;1.00
66403;BMP180;53212;52.112;5.144;2024-01-15T08:08:41;100085.40;;;1.00
66403;BMP180;53212;52.112;5.144;2024-01-15T08:11:06;100085.60;;;1.00
66403;BMP180;53212;52.112;5.144;2024-01-15T08:13:32;100090.60;;;1.00
66403;BMP180;53212;52.112;5.144;2024-01-15T08:15:57;100093.40;;;1.00
66403;BMP180;53212;52.112;5.144;2024-01-15T08:18:23;100099.60;;;0.90
66403;BMP180;53212;52.112;5.144;2024-01-15T08:20:49;100104.40;;;0.90
66403;BMP180;53212;52.112;5.144;2024-01-15T08:23:16;100110.80;;;0.90
66403;BMP180;53212;52.112;5.144;2024-01-15T08:25:41;100115.00;;;1.00
66403;BMP180;53212;52.112;5.144;2024-01-15T08:28:07;100110.60;;;1.00
66403;BMP180;53212;52.112;5.144;2024-01-15T08:30:33;100108.80;;;1.00
66403;BMP180;53212;52.112;5.144;2024-01-15T08:33:00;100124.40;;;1.00
66403;BMP180;53212;52.112;5.144;2024-01-15T08:35:25;100127.00;;;1.10
66403;BMP180;53212;52.112;5.144;2024-01-15T08:37:52;100136.20;;;1.00
66403;BMP180;53212;52.112;5.144;2024-01-15T08:40:18;100139.00;;;1.00
66403;BMP180;53212;52.112;5.144;2024-01-15T08:42:44;100122.80;;;1.00
66403;BMP180;53212;52.112;5.144;2024-01-15T08:45:11;100111.80;;;0.96
66403;BMP180;53212;52.112;5.144;2024-01-15T08:47:36;100093.60;;;1.00
66403;BMP180;53212;52.112;5.144;2024-01-15T08:50:02;100083.80;;;1.00
66403;BMP180;53212;52.112;5.144;2024-01-15T08:52:29;100089.40;;;1.00
66403;BMP180;53212;52.112;5.144;2024-01-15T08:54:56;100097.60;;;1.00
66403;BMP180;53212;52.112;5.144;2024-01-15T08:57:22;100103.80;;;1.10
66403;BMP180;53212;52.112;5.144;2024-01-15T08:59:47;100104.20;;;1.20
66403;BMP180;53212;52.112;5.144;2024-01-15T09:02:13;100130.80;;;1.30
66403;BMP180;53212;52.112;5.144;2024-01-15T09:04:39;100142.00;;;1.40
66403;BMP180;53212;52.112;5.144;2024-01-15T09:07:05;100131.20;;;1.30
66403;BMP180;53212;52.112;5.144;2024-01-15T09:09:30;100129.40;;;1.30
66403;BMP180;53212;52.112;5.144;2024-01-15T09:11:56;100134.80;;;1.20
66403;BMP180;53212;52.112;5.144;2024-01-15T09:14:21;100136.60;;;1.20
66403;BMP180;53212;52.112;5.144;2024-01-15T09:16:49;100135.80;;;1.18
66403;BMP180;53212;52.112;5.144;2024-01-15T09:19:14;100142.60;;;1.20
66403;BMP180;53212;52.112;5.144;2024-01-15T09:21:40;100128.40;;;1.20
66403;BMP180;53212;52.112;5.144;2024-01-15T09:24:06;100124.20;;;1.30
66403;BMP180;53212;52.112;5.144;2024-01-15T09:26:31;100116.20;;;1.36
66403;BMP180;53212;52.112;5.144;2024-01-15T09:28:57;100118.60;;;1.50
66403;BMP180;53212;52.112;5.144;2024-01-15T09:31:23;100125.40;;;1.50
66403;BMP180;53212;52.112;5.144;2024-01-15T09:33:49;100130.80;;;1.50
66403;BMP180;53212;52.112;5.144;2024-01-15T09:36:21;100129.80;;;1.40
66403;BMP180;53212;52.112;5.144;2024-01-15T09:38:48;100131.80;;;1.40
66403;BMP180;53212;52.112;5.144;2024-01-15T09:41:14;100125.20;;;1.40
66403;BMP180;53212;52.112;5.144;2024-01-15T09:43:40;100124.80;;;1.40
66403;BMP180;53212;52.112;5.144;2024-01-15T09:46:06;100118.20;;;1.40
66403;BMP180;53212;52.112;5.144;2024-01-15T09:48:31;100121.80;;;1.40
66403;BMP180;53212;52.112;5.144;2024-01-15T09:51:01;100110.20;;;1.40
66403;BMP180;53212;52.112;5.144;2024-01-15T09:53:27;100106.80;;;1.34
66403;BMP180;53212;52.112;5.144;2024-01-15T09:55:52;100103.20;;;1.40
66403;BMP180;53212;52.112;5.144;2024-01-15T09:58:18;100103.00;;;1.40
66403;BMP180;53212;52.112;5.144;2024-01-15T10:00:44;100115.00;;;1.52
66403;BMP180;53212;52.112;5.144;2024-01-15T10:03:12;100106.60;;;1.70
66403;BMP180;53212;52.112;5.144;2024-01-15T10:05:38;100110.60;;;1.86
66403;BMP180;53212;52.112;5.144;2024-01-15T10:08:04;100114.80;;;2.10
66403;BMP180;53212;52.112;5.144;2024-01-15T10:10:30;100118.40;;;2.40
66403;BMP180;53212;52.112;5.144;2024-01-15T10:12:58;100117.40;;;2.64
66403;BMP180;53212;52.112;5.144;2024-01-15T10:15:25;100126.00;;;2.72
66403;BMP180;53212;52.112;5.144;2024-01-15T10:17:52;100120.00;;;2.78
66403;BMP180;53212;52.112;5.144;2024-01-15T10:20:17;100119.60;;;2.90
66403;BMP180;53212;52.112;5.144;2024-01-15T10:22:45;100118.00;;;2.92
66403;BMP180;53212;52.112;5.144;2024-01-15T10:25:13;100123.20;;;3.08
66403;BMP180;53212;52.112;5.144;2024-01-15T10:27:40;100116.80;;;3.10
66403;BMP180;53212;52.112;5.144;2024-01-15T10:30:10;100130.80;;;3.10
66403;BMP180;53212;52.112;5.144;2024-01-15T10:32:36;100130.20;;;2.96
66403;BMP180;53212;52.112;5.144;2024-01-15T10:35:02;100123.40;;;2.70
66403;BMP180;53212;52.112;5.144;2024-01-15T10:37:33;100127.40;;;2.50
66403;BMP180;53212;52.112;5.144;2024-01-15T10:40:02;100123.60;;;2.40
66403;BMP180;53212;52.112;5.144;2024-01-15T10:42:30;100125.60;;;2.30
66403;BMP180;53212;52.112;5.144;2024-01-15T10:44:56;100128.60;;;2.40
66403;BMP180;53212;52.112;5.144;2024-01-15T10:47:22;100130.00;;;2.50
66403;BMP180;53212;52.112;5.144;2024-01-15T10:49:48;100135.00;;;2.70
66403;BMP180;53212;52.112;5.144;2024-01-15T10:52:14;100137.00;;;2.90
66403;BMP180;53212;52.112;5.144;2024-01-15T10:54:41;100139.60;;;3.10
66403;BMP180;53212;52.112;5.144;2024-01-15T10:57:08;100146.40;;;3.10
66403;BMP180;53212;52.112;5.144;2024-01-15T10:59:34;100151.00;;;3.00
66403;BMP180;53212;52.112;5.144;2024-01-15T11:02:00;100152.20;;;3.00
66403;BMP180;53212;52.112;5.144;2024-01-15T11:04:25;100151.00;;;2.90
66403;BMP180;53212;52.112;5.144;2024-01-15T11:06:54;100150.20;;;2.90
66403;BMP180;53212;52.112;5.144;2024-01-15T11:09:20;100152.40;;;2.80
66403;BMP180;53212;52.112;5.144;2024-01-15T11:11:47;100154.00;;;2.82
66403;BMP180;53212;52.112;5.144;2024-01-15T11:14:34;100156.00;;;2.80
66403;BMP180;53212;52.112;5.144;2024-01-15T11:17:01;100155.80;;;2.70
66403;BMP180;53212;52.112;5.144;2024-01-15T11:19:45;100157.20;;;2.80
66403;BMP180;53212;52.112;5.144;2024-01-15T11:24:55;100157.60;;;3.10
66403;BMP180;53212;52.112;5.144;2024-01-15T11:27:45;100158.40;;;3.20
66403;BMP180;53212;52.112;5.144;2024-01-15T11:30:25;100161.20;;;3.20
66403;BMP180;53212;52.112;5.144;2024-01-15T11:32:50;100164.80;;;3.08
66403;BMP180;53212;52.112;5.144;2024-01-15T11:35:16;100162.80;;;2.98
66403;BMP180;53212;52.112;5.144;2024-01-15T11:42:59;100178.00;;;2.70
66403;BMP180;53212;52.112;5.144;2024-01-15T11:45:24;100177.20;;;2.60
66403;BMP180;53212;52.112;5.144;2024-01-15T11:48:16;100180.80;;;2.50
66403;BMP180;53212;52.112;5.144;2024-01-15T11:50:50;100180.00;;;2.30
66403;BMP180;53212;52.112;5.144;2024-01-15T11:55:51;100180.80;;;2.10
66403;BMP180;53212;52.112;5.144;2024-01-15T11:58:16;100186.60;;;2.04
66403;BMP180;53212;52.112;5.144;2024-01-15T12:00:48;100177.60;;;2.00
66403;BMP180;53212;52.112;5.144;2024-01-15T12:03:16;100180.20;;;2.00
66403;BMP180;53212;52.112;5.144;2024-01-15T12:05:42;100176.40;;;2.04
66403;BMP180;53212;52.112;5.144;2024-01-15T12:08:08;100178.00;;;2.10
66403;BMP180;53212;52.112;5.144;2024-01-15T12:10:40;100183.40;;;2.20
66403;BMP180;53212;52.112;5.144;2024-01-15T12:13:14;100187.40;;;2.20
66403;BMP180;53212;52.112;5.144;2024-01-15T12:15:41;100191.00;;;2.20
66403;BMP180;53212;52.112;5.144;2024-01-15T12:18:09;100191.20;;;2.30
66403;BMP180;53212;52.112;5.144;2024-01-15T12:20:36;100186.40;;;2.40
66403;BMP180;53212;52.112;5.144;2024-01-15T12:23:02;100192.00;;;2.48
66403;BMP180;53212;52.112;5.144;2024-01-15T12:25:35;100195.40;;;2.54
66403;BMP180;53212;52.112;5.144;2024-01-15T12:28:01;100196.20;;;2.60
66403;BMP180;53212;52.112;5.144;2024-01-15T12:30:28;100187.00;;;2.70
66403;BMP180;53212;52.112;5.144;2024-01-15T12:32:54;100176.20;;;2.80
66403;BMP180;53212;52.112;5.144;2024-01-15T12:35:20;100178.60;;;3.00
66403;BMP180;53212;52.112;5.144;2024-01-15T12:37:47;100182.60;;;3.20
66403;BMP180;53212;52.112;5.144;2024-01-15T12:40:13;100182.60;;;3.32
66403;BMP180;53212;52.112;5.144;2024-01-15T12:42:43;100182.60;;;3.50
66403;BMP180;53212;52.112;5.144;2024-01-15T12:45:11;100183.00;;;3.60
66403;BMP180;53212;52.112;5.144;2024-01-15T12:47:38;100183.80;;;3.60
66403;BMP180;53212;52.112;5.144;2024-01-15T12:50:08;100195.20;;;3.50
66403;BMP180;53212;52.112;5.144;2024-01-15T12:52:34;100222.20;;;3.40
66403;BMP180;53212;52.112;5.144;2024-01-15T12:55:00;100229.00;;;3.10
66403;BMP180;53212;52.112;5.144;2024-01-15T12:57:25;100221.60;;;3.00
66403;BMP180;53212;52.112;5.144;2024-01-15T12:59:50;100227.80;;;2.90
66403;BMP180;53212;52.112;5.144;2024-01-15T13:02:16;100229.80;;;2.88
66403;BMP180;53212;52.112;5.144;2024-01-15T13:04:42;100227.20;;;2.80
66403;BMP180;53212;52.112;5.144;2024-01-15T13:07:08;100227.20;;;2.70
66403;BMP180;53212;52.112;5.144;2024-01-15T13:09:35;100224.20;;;2.62
66403;BMP180;53212;52.112;5.144;2024-01-15T13:12:04;100216.40;;;2.70
66403;BMP180;53212;52.112;5.144;2024-01-15T13:14:31;100215.00;;;2.70
66403;BMP180;53212;52.112;5.144;2024-01-15T13:16:56;100210.40;;;2.70
66403;BMP180;53212;52.112;5.144;2024-01-15T13:19:22;100216.40;;;2.74
66403;BMP180;53212;52.112;5.144;2024-01-15T13:21:48;100216.40;;;2.80
66403;BMP180;53212;52.112;5.144;2024-01-15T13:24:15;100215.60;;;2.90
66403;BMP180;53212;52.112;5.144;2024-01-15T13:26:40;100220.40;;;3.00
66403;BMP180;53212;52.112;5.144;2024-01-15T13:29:06;100218.60;;;3.00
66403;BMP180;53212;52.112;5.144;2024-01-15T13:31:33;100218.40;;;2.90
66403;BMP180;53212;52.112;5.144;2024-01-15T13:33:59;100217.00;;;2.82
66403;BMP180;53212;52.112;5.144;2024-01-15T13:36:26;100217.60;;;2.80
66403;BMP180;53212;52.112;5.144;2024-01-15T13:38:52;100226.00;;;2.80
66403;BMP180;53212;52.112;5.144;2024-01-15T13:41:20;100238.00;;;2.70
66403;BMP180;53212;52.112;5.144;2024-01-15T13:43:54;100252.00;;;2.70
66403;BMP180;53212;52.112;5.144;2024-01-15T13:46:23;100253.00;;;2.60
66403;BMP180;53212;52.112;5.144;2024-01-15T13:48:49;100250.60;;;2.60
66403;BMP180;53212;52.112;5.144;2024-01-15T13:51:15;100253.80;;;2.60
66403;BMP180;53212;52.112;5.144;2024-01-15T13:53:41;100256.00;;;2.70
66403;BMP180;53212;52.112;5.144;2024-01-15T13:56:07;100262.40;;;3.00
66403;BMP180;53212;52.112;5.144;2024-01-15T13:58:33;100253.00;;;3.20
66403;BMP180;53212;52.112;5.144;2024-01-15T14:01:00;100250.60;;;3.20
66403;BMP180;53212;52.112;5.144;2024-01-15T14:03:26;100245.80;;;3.20
66403;BMP180;53212;52.112;5.144;2024-01-15T14:05:52;100243.40;;;3.20
66403;BMP180;53212;52.112;5.144;2024-01-15T14:08:17;100248.60;;;3.20
66403;BMP180;53212;52.112;5.144;2024-01-15T14:10:43;100250.60;;;3.10
66403;BMP180;53212;52.112;5.144;2024-01-15T14:13:08;100252.20;;;3.00
66403;BMP180;53212;52.112;5.144;2024-01-15T14:15:35;100252.60;;;2.90